Time;durP1;ratioP1;P1;durP2;ratioP2;P2;SDS_P1;SDS_P2;PMS_P1;PMS_P2;Temp;Humidity;BMP_temperature;BMP_pressure;BME280_temperature;BME280_humidity;BME280_pressure;Samples;Min_cycle;Max_cycle;Signal;HPM_P1;HPM_P2
2023/02/17 00:01:22;;;;;;;35.60;24.85;;;21.10;34.20;;;;;;5055127;28;20136;-64
2023/02/17 00:03:51;;;;;;;33.58;23.35;;;21.10;34.20;;;;;;5054984;28;20132;-64
2023/02/17 00:06:21;;;;;;;33.55;22.95;;;21.10;34.20;;;;;;5055538;28;20049;-63
2023/02/17 00:08:48;;;;;;;35.20;24.48;;;21.10;34.20;;;;;;5055003;28;20079;-63
2023/02/17 00:11:16;;;;;;;32.40;22.83;;;21.00;34.20;;;;;;5054713;28;20140;-63
2023/02/17 00:13:44;;;;;;;32.30;22.52;;;21.10;34.20;;;;;;5055249;28;20048;-63
2023/02/17 00:16:18;;;;;;;33.75;24.10;;;21.00;34.20;;;;;;5055796;28;20045;-63
2023/02/17 00:18:50;;;;;;;34.40;22.50;;;21.00;34.10;;;;;;5055464;28;20055;-63
2023/02/17 00:21:19;;;;;;;33.03;23.55;;;21.00;34.10;;;;;;5055535;28;20467;-63
2023/02/17 00:23:48;;;;;;;32.88;22.60;;;21.00;34.10;;;;;;5054898;28;20048;-63
2023/02/17 00:26:19;;;;;;;34.22;22.00;;;21.00;34.10;;;;;;5055932;28;20075;-63
2023/02/17 00:28:47;;;;;;;34.53;22.98;;;21.00;34.10;;;;;;5055490;28;20055;-63
2023/02/17 00:31:21;;;;;;;35.08;22.73;;;21.00;34.10;;;;;;5055667;28;20056;-63
2023/02/17 00:33:49;;;;;;;32.20;22.10;;;21.00;34.10;;;;;;5055038;28;20507;-63
2023/02/17 00:36:18;;;;;;;34.45;22.40;;;21.00;34.20;;;;;;5055221;28;20132;-63
2023/02/17 00:38:47;;;;;;;31.05;21.60;;;21.00;34.10;;;;;;5054972;28;20048;-63
2023/02/17 00:41:16;;;;;;;29.00;21.00;;;21.00;34.10;;;;;;5054450;28;20053;-63
2023/02/17 00:43:44;;;;;;;34.55;22.13;;;20.90;34.00;;;;;;5055171;28;20497;-63
2023/02/17 00:46:11;;;;;;;30.80;21.42;;;20.90;34.10;;;;;;5054368;28;20060;-63
2023/02/17 00:48:38;;;;;;;29.02;20.90;;;20.90;34.10;;;;;;5055082;28;20573;-63
2023/02/17 00:51:06;;;;;;;31.85;22.15;;;21.00;34.10;;;;;;5053472;28;20053;-63
2023/02/17 00:53:33;;;;;;;29.83;20.88;;;20.90;34.00;;;;;;5055128;28;20083;-63
2023/02/17 00:56:00;;;;;;;30.80;20.88;;;21.00;34.10;;;;;;5054728;28;20484;-63
2023/02/17 00:58:28;;;;;;;29.42;20.55;;;20.90;34.00;;;;;;5054621;28;20052;-63
2023/02/17 01:00:56;;;;;;;31.63;21.17;;;20.90;34.00;;;;;;5054738;28;20055;-63
2023/02/17 01:03:24;;;;;;;31.50;20.88;;;20.90;34.00;;;;;;5054893;28;20059;-63
2023/02/17 01:05:53;;;;;;;29.30;19.88;;;20.90;34.10;;;;;;5052129;28;20049;-63
2023/02/17 01:08:21;;;;;;;28.80;20.45;;;20.90;34.10;;;;;;5054011;28;20053;-62
2023/02/17 01:10:49;;;;;;;30.33;20.13;;;20.90;34.00;;;;;;5054622;28;20132;-63
2023/02/17 01:13:17;;;;;;;25.98;19.10;;;20.90;34.00;;;;;;5054691;28;20441;-63
2023/02/17 01:15:47;;;;;;;28.25;20.13;;;20.90;34.00;;;;;;5054964;28;20086;-63
2023/02/17 01:18:16;;;;;;;27.10;19.25;;;20.90;34.00;;;;;;5036613;28;20053;-63
2023/02/17 01:20:43;;;;;;;27.67;19.23;;;20.90;34.00;;;;;;5054384;28;20052;-63
2023/02/17 01:23:12;;;;;;;29.15;19.92;;;20.90;34.00;;;;;;5053748;28;20049;-63
2023/02/17 01:25:44;;;;;;;26.13;18.80;;;20.90;34.00;;;;;;5052720;28;20049;-63
2023/02/17 01:28:16;;;;;;;26.73;19.63;;;20.90;33.90;;;;;;5053881;28;20045;-63
2023/02/17 01:30:43;;;;;;;27.65;18.95;;;20.90;33.90;;;;;;5052499;28;20140;-63
2023/02/17 01:33:10;;;;;;;27.02;18.55;;;20.90;33.80;;;;;;5053540;28;20044;-63
2023/02/17 01:35:37;;;;;;;26.13;18.42;;;20.90;33.80;;;;;;5053859;28;20416;-63
2023/02/17 01:38:04;;;;;;;25.85;18.73;;;20.90;33.80;;;;;;5053898;28;20215;-64
2023/02/17 01:40:32;;;;;;;25.77;18.80;;;20.90;33.80;;;;;;5053804;28;20055;-63
2023/02/17 01:42:59;;;;;;;27.08;19.33;;;20.90;33.80;;;;;;5053396;28;20045;-63
2023/02/17 01:45:33;;;;;;;26.23;18.85;;;20.90;33.80;;;;;;5053058;28;20088;-63
2023/02/17 01:48:15;;;;;;;25.05;17.90;;;20.90;33.80;;;;;;5054014;28;20452;-62
2023/02/17 01:50:51;;;;;;;25.55;17.35;;;20.90;33.80;;;;;;5053226;28;20049;-63
2023/02/17 01:53:25;;;;;;;25.83;17.02;;;20.90;33.80;;;;;;5053552;28;20084;-63
2023/02/17 01:55:54;;;;;;;25.95;18.10;;;20.80;33.70;;;;;;5052899;28;20100;-65
2023/02/17 01:58:23;;;;;;;25.30;17.50;;;20.90;33.80;;;;;;5053589;28;20056;-65
2023/02/17 02:00:52;;;;;;;25.95;17.70;;;20.80;33.70;;;;;;5054040;28;20049;-63
2023/02/17 02:03:20;;;;;;;24.70;16.25;;;20.80;33.70;;;;;;5053453;28;20045;-63
2023/02/17 02:05:47;;;;;;;23.13;16.55;;;20.80;33.70;;;;;;5051339;28;20092;-62
2023/02/17 02:08:14;;;;;;;25.08;17.00;;;20.80;33.70;;;;;;5053146;28;20524;-63
2023/02/17 02:10:42;;;;;;;24.55;17.50;;;20.80;33.70;;;;;;5053307;28;20404;-63
2023/02/17 02:13:09;;;;;;;23.45;16.42;;;20.80;33.70;;;;;;5052522;28;20056;-65
2023/02/17 02:15:43;;;;;;;24.58;16.88;;;20.80;33.70;;;;;;5052837;28;20076;-63
2023/02/17 02:18:30;;;;;;;22.58;16.05;;;20.80;33.70;;;;;;5052761;28;20045;-64
2023/02/17 02:21:37;;;;;;;19.98;15.80;;;20.80;33.70;;;;;;5052051;28;20128;-63
2023/02/17 02:24:20;;;;;;;22.67;16.02;;;20.80;33.60;;;;;;5052777;28;20080;-63
2023/02/17 02:27:27;;;;;;;22.50;16.52;;;20.80;33.60;;;;;;5051875;28;20080;-65
2023/02/17 02:30:15;;;;;;;21.30;15.98;;;20.80;33.60;;;;;;5051694;28;20052;-65
2023/02/17 02:32:54;;;;;;;21.88;16.67;;;20.80;33.60;;;;;;5053195;28;20052;-62
2023/02/17 02:35:36;;;;;;;22.88;15.63;;;20.80;33.60;;;;;;5052509;28;20072;-63
2023/02/17 02:38:37;;;;;;;20.88;15.35;;;20.80;33.60;;;;;;5053207;28;20099;-65
2023/02/17 02:41:16;;;;;;;;;;;20.80;33.60;;;;;;5052391;28;20087;-65
2023/02/17 02:43:43;;;;;;;21.35;14.98;;;20.80;33.60;;;;;;5052575;28;19931;-65
2023/02/17 02:46:10;;;;;;;20.73;14.82;;;20.80;33.60;;;;;;5052369;28;20063;-65
2023/02/17 02:48:39;;;;;;;22.17;15.57;;;20.80;33.60;;;;;;5052767;28;20045;-65
2023/02/17 02:51:40;;;;;;;21.20;15.20;;;20.80;33.60;;;;;;5053014;28;20481;-65
2023/02/17 02:54:35;;;;;;;19.60;14.25;;;20.70;33.60;;;;;;5052880;28;20085;-65
2023/02/17 02:57:19;;;;;;;22.02;15.18;;;20.70;33.60;;;;;;5052796;28;20048;-65
2023/02/17 02:59:58;;;;;;;19.77;14.73;;;20.80;33.60;;;;;;5052409;28;20045;-65
2023/02/17 03:02:51;;;;;;;19.88;14.82;;;20.70;33.50;;;;;;5052037;28;20059;-65
2023/02/17 03:05:38;;;;;;;18.63;14.45;;;20.80;33.60;;;;;;5052402;28;20044;-65
2023/02/17 03:08:14;;;;;;;21.90;14.75;;;20.70;33.50;;;;;;5051551;28;20560;-64
2023/02/17 03:10:51;;;;;;;20.80;14.43;;;20.70;33.50;;;;;;5051802;28;20060;-65
2023/02/17 03:13:19;;;;;;;20.52;13.75;;;20.70;33.60;;;;;;5052612;28;20049;-65
2023/02/17 03:15:47;;;;;;;22.45;14.75;;;20.70;33.50;;;;;;5052187;28;20048;-65
2023/02/17 03:18:15;;;;;;;19.10;14.82;;;20.70;33.60;;;;;;5052240;28;20525;-65
2023/02/17 03:20:53;;;;;;;18.75;13.75;;;20.70;33.50;;;;;;5052038;28;20485;-65
2023/02/17 03:23:20;;;;;;;19.88;14.27;;;20.70;33.60;;;;;;5051403;28;20136;-63
2023/02/17 03:25:49;;;;;;;18.75;13.65;;;20.70;33.50;;;;;;5052706;28;20447;-63
2023/02/17 03:28:17;;;;;;;19.17;13.68;;;20.70;33.50;;;;;;5051746;28;20059;-63
2023/02/17 03:30:44;;;;;;;22.38;14.48;;;20.80;33.50;;;;;;5055963;28;20072;-65
2023/02/17 03:33:11;;;;;;;19.65;13.70;;;20.80;33.50;;;;;;5056040;28;20063;-65
2023/02/17 03:35:38;;;;;;;21.88;13.95;;;20.80;33.50;;;;;;5055645;28;20081;-65
2023/02/17 03:38:05;;;;;;;17.83;14.32;;;20.80;33.40;;;;;;5055935;28;20505;-65
2023/02/17 03:40:33;;;;;;;20.38;14.23;;;20.80;33.40;;;;;;5055543;28;20047;-65
2023/02/17 03:43:00;;;;;;;19.33;13.70;;;20.80;33.40;;;;;;5055516;28;20400;-65
2023/02/17 03:45:27;;;;;;;18.90;13.50;;;20.80;33.40;;;;;;5056018;28;20045;-65
2023/02/17 03:47:54;;;;;;;18.13;13.35;;;20.70;33.40;;;;;;5056114;28;20094;-63
2023/02/17 03:50:21;;;;;;;19.48;12.93;;;20.70;33.30;;;;;;5056421;28;20131;-63
2023/02/17 03:52:48;;;;;;;18.73;13.60;;;20.70;33.30;;;;;;5055250;28;20131;-63
2023/02/17 03:55:15;;;;;;;19.77;12.98;;;20.70;33.30;;;;;;5055840;28;20053;-63
2023/02/17 03:57:43;;;;;;;17.52;13.70;;;20.70;33.30;;;;;;5056457;28;20554;-63
2023/02/17 04:00:10;;;;;;;18.77;12.80;;;20.70;33.30;;;;;;5056037;28;20045;-63
2023/02/17 04:02:37;;;;;;;19.67;13.63;;;20.70;33.30;;;;;;5056046;28;20053;-63
2023/02/17 04:05:04;;;;;;;19.02;12.95;;;20.70;33.30;;;;;;5054605;28;20049;-63
2023/02/17 04:07:32;;;;;;;18.55;14.07;;;20.70;33.20;;;;;;5056268;28;20045;-63
2023/02/17 04:09:59;;;;;;;19.35;13.50;;;20.70;33.20;;;;;;5055954;28;20049;-63
2023/02/17 04:12:26;;;;;;;17.98;12.40;;;20.70;33.20;;;;;;5055197;28;20044;-63
2023/02/17 04:14:53;;;;;;;18.35;13.32;;;20.70;33.20;;;;;;5055569;28;20080;-63
2023/02/17 04:17:20;;;;;;;18.45;12.35;;;20.70;33.20;;;;;;5040460;28;20561;-63
2023/02/17 04:19:47;;;;;;;20.75;13.82;;;20.70;33.20;;;;;;5036067;28;20132;-63
2023/02/17 04:22:14;;;;;;;17.15;12.55;;;20.70;33.20;;;;;;5049329;28;20382;-63
2023/02/17 04:24:41;;;;;;;17.20;12.85;;;20.70;33.20;;;;;;5055645;28;20382;-63
2023/02/17 04:27:09;;;;;;;17.52;12.80;;;20.70;33.20;;;;;;5054862;28;20102;-63
2023/02/17 04:29:36;;;;;;;18.83;13.77;;;20.70;33.20;;;;;;5055508;28;20049;-63
2023/02/17 04:32:03;;;;;;;15.95;12.45;;;20.70;33.20;;;;;;5037603;28;20049;-63
2023/02/17 04:34:30;;;;;;;20.33;12.77;;;20.60;33.10;;;;;;5035814;28;20103;-63
2023/02/17 04:36:58;;;;;;;18.00;12.73;;;20.60;33.10;;;;;;5035194;28;20096;-63
2023/02/17 04:39:25;;;;;;;15.30;11.82;;;20.60;33.10;;;;;;5035372;28;20046;-63
2023/02/17 04:41:52;;;;;;;18.90;13.18;;;20.60;33.10;;;;;;5042571;28;20139;-63
2023/02/17 04:44:19;;;;;;;17.98;12.77;;;20.60;33.10;;;;;;5035198;28;20045;-63
2023/02/17 04:46:46;;;;;;;15.80;11.75;;;20.60;33.10;;;;;;5050429;28;20070;-63
2023/02/17 04:49:13;;;;;;;17.27;12.55;;;20.60;33.10;;;;;;5054995;28;20053;-63
2023/02/17 04:51:40;;;;;;;18.40;12.40;;;20.60;33.10;;;;;;5055092;28;20479;-65
2023/02/17 04:54:07;;;;;;;18.15;12.63;;;20.60;33.10;;;;;;5054343;28;20485;-65
2023/02/17 04:56:34;;;;;;;17.40;11.85;;;20.60;33.10;;;;;;5053812;28;20540;-65
2023/02/17 04:59:02;;;;;;;18.98;13.50;;;20.60;33.10;;;;;;5054222;28;20053;-65
2023/02/17 05:01:29;;;;;;;17.40;12.18;;;20.60;33.10;;;;;;5054773;28;20045;-65
2023/02/17 05:03:56;;;;;;;16.58;12.38;;;20.60;33.10;;;;;;5054441;28;20409;-63
2023/02/17 05:06:23;;;;;;;15.35;11.65;;;20.60;33.10;;;;;;5054250;28;20056;-63
2023/02/17 05:08:52;;;;;;;16.50;12.15;;;20.60;33.10;;;;;;5054682;28;20124;-65
2023/02/17 05:11:19;;;;;;;17.35;12.18;;;20.60;33.10;;;;;;5054935;28;20045;-65
2023/02/17 05:13:46;;;;;;;17.15;12.52;;;20.60;33.10;;;;;;5054193;28;20531;-65
2023/02/17 05:16:13;;;;;;;17.70;12.68;;;20.60;33.10;;;;;;5054365;28;20091;-65
2023/02/17 05:18:41;;;;;;;17.48;11.85;;;20.60;33.10;;;;;;5054628;28;20045;-65
2023/02/17 05:21:08;;;;;;;14.45;10.93;;;20.60;33.10;;;;;;5053864;28;20156;-65
2023/02/17 05:23:39;;;;;;;16.75;11.55;;;20.60;33.10;;;;;;5054899;28;20044;-63
2023/02/17 05:26:08;;;;;;;16.27;11.65;;;20.60;33.10;;;;;;5054898;28;20056;-63
2023/02/17 05:28:36;;;;;;;15.98;12.23;;;20.60;33.10;;;;;;5054189;28;20040;-63
2023/02/17 05:31:03;;;;;;;15.55;11.77;;;20.60;33.10;;;;;;5071847;28;20479;-63
2023/02/17 05:33:31;;;;;;;14.20;10.80;;;20.60;33.10;;;;;;5068061;28;20053;-63
2023/02/17 05:36:04;;;;;;;18.98;13.25;;;20.60;33.10;;;;;;5036413;28;20051;-63
2023/02/17 05:38:32;;;;;;;20.27;14.23;;;20.60;32.90;;;;;;5039912;28;20053;-62
2023/02/17 05:40:59;;;;;;;20.17;13.95;;;20.60;32.70;;;;;;5044717;28;20053;-63
2023/02/17 05:43:27;;;;;;;20.17;14.52;;;20.50;32.60;;;;;;5047350;28;20436;-65
2023/02/17 05:45:54;;;;;;;18.52;13.50;;;20.50;32.60;;;;;;5070136;28;20127;-65
2023/02/17 05:48:21;;;;;;;20.40;14.20;;;20.50;32.60;;;;;;5073637;28;20059;-65
2023/02/17 05:50:48;;;;;;;21.00;14.52;;;20.50;32.60;;;;;;5073827;28;20131;-65
2023/02/17 05:53:15;;;;;;;20.70;14.02;;;20.50;32.60;;;;;;5071366;28;20052;-65
2023/02/17 05:55:42;;;;;;;19.25;13.75;;;20.40;32.50;;;;;;5044975;28;20196;-64
2023/02/17 05:58:10;;;;;;;23.35;15.65;;;20.40;32.50;;;;;;5033413;28;20527;-65
2023/02/17 06:00:37;;;;;;;24.02;15.43;;;20.40;32.50;;;;;;5046905;28;20098;-65
2023/02/17 06:03:05;;;;;;;24.60;16.33;;;20.50;32.50;;;;;;5039711;28;20053;-64
2023/02/17 06:05:32;;;;;;;21.65;15.27;;;20.50;32.40;;;;;;5043150;28;20472;-64
2023/02/17 06:07:59;;;;;;;24.52;16.02;;;20.50;32.40;;;;;;5040189;28;20409;-64
2023/02/17 06:10:26;;;;;;;26.15;16.85;;;20.50;32.30;;;;;;5037720;28;20664;-62
2023/02/17 06:12:53;;;;;;;21.25;15.43;;;20.60;32.30;;;;;;5042969;28;20132;-63
2023/02/17 06:15:21;;;;;;;26.55;17.67;;;20.60;32.30;;;;;;5048280;28;20049;-61
2023/02/17 06:17:48;;;;;;;25.50;16.63;;;20.70;32.30;;;;;;5043015;28;20076;-67
2023/02/17 06:20:16;;;;;;;28.52;18.08;;;20.70;32.20;;;;;;5048099;28;20052;-62
2023/02/17 06:22:43;;;;;;;24.90;16.92;;;20.80;32.20;;;;;;5038411;28;20143;-62
2023/02/17 06:25:10;;;;;;;28.52;16.27;;;20.80;32.20;;;;;;5045185;28;20457;-63
2023/02/17 06:27:40;;;;;;;23.35;15.90;;;20.90;32.30;;;;;;5038643;28;20057;-62
2023/02/17 06:30:09;;;;;;;28.80;17.52;;;20.90;32.30;;;;;;5049431;28;20152;-66
2023/02/17 06:32:36;;;;;;;26.17;17.83;;;20.90;32.30;;;;;;5043041;28;20296;-63
2023/02/17 06:35:03;;;;;;;30.23;17.80;;;21.00;32.30;;;;;;5038766;28;20041;-63
2023/02/17 06:37:30;;;;;;;27.80;18.58;;;21.00;32.40;;;;;;5044161;28;20047;-65
2023/02/17 06:39:58;;;;;;;28.80;18.08;;;21.10;32.40;;;;;;5044489;28;20076;-65
2023/02/17 06:42:25;;;;;;;28.80;18.02;;;21.10;32.30;;;;;;5039093;28;20107;-63
2023/02/17 06:44:53;;;;;;;25.90;17.45;;;21.20;32.40;;;;;;5041014;28;20453;-63
2023/02/17 06:47:20;;;;;;;26.33;16.05;;;21.30;32.70;;;;;;5045201;28;20080;-62
2023/02/17 06:49:47;;;;;;;27.35;16.95;;;21.30;33.00;;;;;;5039075;28;20045;-63
2023/02/17 06:52:14;;;;;;;28.55;18.05;;;21.40;33.10;;;;;;5036866;28;20047;-63
2023/02/17 06:54:41;;;;;;;29.55;18.58;;;21.40;33.30;;;;;;5038902;28;20059;-62
2023/02/17 06:57:08;;;;;;;28.15;17.48;;;21.40;33.30;;;;;;5039566;28;20484;-64
2023/02/17 06:59:36;;;;;;;26.83;17.63;;;21.50;33.40;;;;;;5037294;28;20045;-62
2023/02/17 07:02:03;;;;;;;28.17;18.65;;;21.60;33.40;;;;;;5043116;28;20052;-62
2023/02/17 07:04:31;;;;;;;30.25;18.20;;;21.60;33.10;;;;;;5041711;28;20721;-63
2023/02/17 07:06:59;;;;;;;29.30;18.40;;;21.60;33.10;;;;;;5042487;28;20199;-63
2023/02/17 07:09:26;;;;;;;28.00;18.63;;;21.70;33.30;;;;;;5041618;28;20128;-63
2023/02/17 07:11:53;;;;;;;28.38;19.13;;;21.70;33.40;;;;;;5044512;28;20102;-62
2023/02/17 07:14:20;;;;;;;26.70;19.40;;;21.80;33.50;;;;;;5039223;28;20077;-63
2023/02/17 07:16:52;;;;;;;28.65;18.63;;;21.90;33.60;;;;;;5040302;28;20087;-62
2023/02/17 07:19:19;;;;;;;30.98;19.90;;;21.90;34.10;;;;;;5034765;28;20055;-61
2023/02/17 07:21:46;;;;;;;34.28;19.90;;;22.00;33.70;;;;;;5044539;28;20481;-62
2023/02/17 07:24:13;;;;;;;31.13;19.83;;;22.10;33.70;;;;;;5041654;28;20048;-60
2023/02/17 07:26:40;;;;;;;33.00;19.27;;;22.10;33.70;;;;;;5043328;28;20055;-63
2023/02/17 07:29:08;;;;;;;32.00;19.95;;;22.20;33.70;;;;;;5039710;28;20049;-62
2023/02/17 07:31:35;;;;;;;28.20;19.27;;;22.20;33.70;;;;;;5035446;28;20064;-64
2023/02/17 07:34:04;;;;;;;31.98;20.42;;;22.30;33.70;;;;;;5044918;28;20071;-64
2023/02/17 07:36:31;;;;;;;32.67;20.50;;;22.40;34.20;;;;;;5045371;28;20148;-65
2023/02/17 07:38:58;;;;;;;29.58;18.77;;;22.40;33.50;;;;;;5036375;28;20102;-63
2023/02/17 07:41:31;;;;;;;30.02;18.80;;;22.50;33.50;;;;;;5044884;28;20080;-62
2023/02/17 07:43:58;;;;;;;30.17;19.70;;;22.60;33.40;;;;;;5040756;28;20469;-62
2023/02/17 07:46:26;;;;;;;28.02;19.55;;;22.60;33.30;;;;;;5037715;28;20114;-63
2023/02/17 07:48:55;;;;;;;27.33;19.52;;;22.60;33.10;;;;;;5042932;28;20045;-67
2023/02/17 07:51:23;;;;;;;31.50;21.38;;;22.70;33.10;;;;;;5044035;28;20480;-66
2023/02/17 07:53:50;;;;;;;29.05;21.20;;;22.80;33.00;;;;;;5041631;28;20398;-65
2023/02/17 07:56:20;;;;;;;31.60;22.23;;;22.80;33.10;;;;;;5045486;28;20125;-66
2023/02/17 07:58:48;;;;;;;31.08;21.75;;;22.90;33.60;;;;;;5043831;28;20148;-66
2023/02/17 08:01:18;;;;;;;31.77;21.08;;;22.90;33.00;;;;;;5044069;28;20048;-64
2023/02/17 08:03:47;;;;;;;31.63;21.27;;;23.00;33.00;;;;;;5039939;28;20147;-64
2023/02/17 08:06:21;;;;;;;31.75;21.50;;;23.00;33.00;;;;;;5045717;28;20049;-70
2023/02/17 08:14:28;;;;;;;30.75;20.65;;;23.10;33.10;;;;;;5041791;28;20064;-64
2023/02/17 08:16:56;;;;;;;29.08;20.27;;;23.20;33.20;;;;;;5042449;28;20060;-66
2023/02/17 08:19:25;;;;;;;28.17;20.45;;;23.20;33.30;;;;;;5037794;28;20504;-66
2023/02/17 08:22:00;;;;;;;26.45;19.50;;;23.20;33.30;;;;;;5047285;28;20057;-65
2023/02/17 08:24:28;;;;;;;25.50;18.63;;;23.30;33.30;;;;;;5045730;28;20048;-63
2023/02/17 08:26:55;;;;;;;28.85;19.25;;;23.30;33.40;;;;;;5048924;28;20127;-67
2023/02/17 08:29:22;;;;;;;29.02;19.25;;;23.30;33.50;;;;;;5051720;28;20049;-66
2023/02/17 08:31:52;;;;;;;32.78;18.52;;;23.30;33.50;;;;;;5049205;28;20056;-64
2023/02/17 08:34:19;;;;;;;25.83;18.00;;;23.30;33.50;;;;;;5046867;28;20053;-63
2023/02/17 08:36:47;;;;;;;27.25;18.85;;;23.30;33.40;;;;;;5048638;28;20138;-65
2023/02/17 08:39:16;;;;;;;25.27;17.77;;;23.40;33.30;;;;;;5044973;28;20049;-64
2023/02/17 08:41:44;;;;;;;24.55;18.77;;;23.40;33.20;;;;;;5044710;28;20122;-66
2023/02/17 08:44:15;;;;;;;30.27;18.48;;;23.40;33.40;;;;;;5050283;28;20088;-65
2023/02/17 08:46:43;;;;;;;25.45;18.50;;;23.40;33.30;;;;;;5051222;28;21229;-63
2023/02/17 08:49:11;;;;;;;23.75;16.88;;;23.50;33.50;;;;;;5054321;28;20067;-62
2023/02/17 08:51:39;;;;;;;24.30;17.20;;;23.50;33.50;;;;;;5051942;28;20056;-63
2023/02/17 08:54:09;;;;;;;24.67;17.67;;;23.60;33.60;;;;;;5045545;28;20052;-64
2023/02/17 08:56:38;;;;;;;23.92;16.88;;;23.60;33.60;;;;;;5045996;28;20045;-66
2023/02/17 08:59:06;;;;;;;27.83;16.40;;;23.60;33.60;;;;;;5049984;28;20049;-65
2023/02/17 09:01:35;;;;;;;19.27;15.40;;;23.70;33.60;;;;;;5049703;28;20489;-62
2023/02/17 09:04:04;;;;;;;18.92;15.10;;;23.70;33.60;;;;;;5046342;28;20063;-66
2023/02/17 09:06:37;;;;;;;19.92;14.95;;;23.80;33.50;;;;;;5047182;28;20052;-62
2023/02/17 09:09:06;;;;;;;20.02;15.13;;;23.80;33.40;;;;;;5045539;28;20106;-64
2023/02/17 09:11:33;;;;;;;22.27;16.27;;;23.90;33.40;;;;;;5047467;28;20094;-65
2023/02/17 09:14:01;;;;;;;20.83;15.07;;;23.90;33.40;;;;;;5046688;28;20076;-62
2023/02/17 09:16:28;;;;;;;21.30;15.27;;;23.90;33.40;;;;;;5053066;28;20055;-62
2023/02/17 09:18:55;;;;;;;21.58;14.68;;;23.90;33.30;;;;;;5040195;28;20060;-61
2023/02/17 09:21:22;;;;;;;19.35;14.32;;;23.90;33.30;;;;;;5046782;28;20167;-65
2023/02/17 09:23:52;;;;;;;19.23;14.13;;;24.00;33.30;;;;;;5048430;28;20041;-62
2023/02/17 09:26:20;;;;;;;20.25;14.93;;;24.00;33.20;;;;;;5045127;28;20492;-60
2023/02/17 09:28:48;;;;;;;17.70;13.80;;;24.00;33.20;;;;;;5043488;28;20057;-62
2023/02/17 09:31:19;;;;;;;20.20;13.27;;;24.10;33.20;;;;;;5046116;28;20052;-63
2023/02/17 09:33:47;;;;;;;16.63;12.68;;;24.10;33.10;;;;;;5046722;28;20063;-62
2023/02/17 09:36:18;;;;;;;17.92;13.20;;;24.10;33.00;;;;;;5042313;28;20070;-66
2023/02/17 09:38:46;;;;;;;24.38;14.02;;;24.10;33.00;;;;;;5047923;28;20459;-62
2023/02/17 09:41:19;;;;;;;20.85;13.15;;;24.20;33.20;;;;;;5043030;28;20044;-65
2023/02/17 09:43:47;;;;;;;18.42;13.40;;;24.20;33.10;;;;;;5045906;28;20048;-63
2023/02/17 09:46:27;;;;;;;17.17;11.30;;;24.20;33.10;;;;;;5044136;28;20097;-61
2023/02/17 09:49:01;;;;;;;17.60;13.38;;;24.20;33.20;;;;;;5048593;28;20107;-63
2023/02/17 09:51:48;;;;;;;15.05;12.05;;;24.30;33.30;;;;;;5048287;28;20072;-63
2023/02/17 09:54:40;;;;;;;21.05;12.05;;;24.30;33.30;;;;;;5042659;28;20063;-62
2023/02/17 09:57:14;;;;;;;17.52;11.85;;;24.30;33.40;;;;;;5044888;28;20430;-62
2023/02/17 09:59:49;;;;;;;15.27;11.45;;;24.30;33.30;;;;;;5042263;28;20505;-63
2023/02/17 10:02:38;;;;;;;13.77;11.27;;;24.30;33.30;;;;;;5041062;28;20049;-67
2023/02/17 10:05:09;;;;;;;17.90;10.80;;;24.40;33.20;;;;;;5045842;28;20048;-63
2023/02/17 10:08:00;;;;;;;18.00;10.45;;;24.40;32.90;;;;;;5045358;28;20056;-61
2023/02/17 10:10:38;;;;;;;19.95;11.88;;;24.40;32.80;;;;;;5051094;28;20072;-61
2023/02/17 10:13:08;;;;;;;26.45;10.73;;;24.50;32.80;;;;;;5049023;28;20087;-65
2023/02/17 10:15:40;;;;;;;18.77;11.23;;;24.50;32.80;;;;;;5053355;28;20132;-65
2023/02/17 10:18:31;;;;;;;12.85;9.20;;;24.60;32.80;;;;;;5049075;28;20044;-66
2023/02/17 10:21:10;;;;;;;20.73;10.00;;;24.60;32.80;;;;;;5044676;28;20504;-63
2023/02/17 10:23:39;;;;;;;13.93;10.35;;;24.60;32.70;;;;;;5047922;28;20045;-63
2023/02/17 10:26:25;;;;;;;15.07;10.70;;;24.70;32.70;;;;;;5042159;28;20056;-63
2023/02/17 10:29:06;;;;;;;16.05;9.00;;;24.70;32.60;;;;;;5050786;28;20061;-67
2023/02/17 10:31:44;;;;;;;12.10;9.45;;;24.80;32.50;;;;;;5049397;28;20049;-64
2023/02/17 10:34:36;;;;;;;15.00;9.50;;;24.80;32.40;;;;;;5040698;28;20076;-62
2023/02/17 10:37:29;;;;;;;12.90;8.60;;;24.90;32.40;;;;;;5045838;28;20052;-61
2023/02/17 10:39:57;;;;;;;12.70;8.93;;;24.90;32.20;;;;;;5049232;28;20053;-63
2023/02/17 10:42:32;;;;;;;13.35;9.48;;;24.90;32.20;;;;;;5044241;28;20044;-65
2023/02/17 10:45:23;;;;;;;9.68;8.40;;;24.90;32.10;;;;;;5045280;28;20048;-63
2023/02/17 10:48:33;;;;;;;11.27;8.32;;;25.00;32.20;;;;;;5044333;28;20054;-64
2023/02/17 10:51:01;;;;;;;11.65;8.45;;;25.00;32.20;;;;;;5051780;28;20077;-65
2023/02/17 10:53:40;;;;;;;10.77;8.30;;;25.00;32.10;;;;;;5049626;28;20044;-65
2023/02/17 10:56:31;;;;;;;12.63;8.15;;;25.00;32.10;;;;;;5049610;28;20049;-65
2023/02/17 10:59:19;;;;;;;9.93;8.30;;;25.10;32.10;;;;;;5048267;28;20041;-63
2023/02/17 11:01:48;;;;;;;10.27;7.35;;;25.10;32.10;;;;;;5046711;28;20057;-64
2023/02/17 11:04:16;;;;;;;9.63;7.60;;;25.10;32.00;;;;;;5047066;28;20059;-64
2023/02/17 11:06:53;;;;;;;11.55;8.55;;;25.10;32.10;;;;;;5048116;28;20493;-64
2023/02/17 11:09:30;;;;;;;10.30;7.93;;;25.10;31.90;;;;;;5048622;28;20048;-65
2023/02/17 11:12:09;;;;;;;10.95;8.07;;;25.10;31.90;;;;;;5050008;28;20041;-64
2023/02/17 11:14:44;;;;;;;8.93;7.95;;;25.20;31.90;;;;;;5050255;28;20049;-64
2023/02/17 11:17:29;;;;;;;10.95;7.95;;;25.20;31.90;;;;;;5047794;28;20132;-64
2023/02/17 11:20:05;;;;;;;8.77;7.88;;;25.20;31.90;;;;;;5052504;28;20564;-62
2023/02/17 11:22:39;;;;;;;12.38;7.95;;;25.20;31.80;;;;;;5047392;28;20416;-62
2023/02/17 11:25:26;;;;;;;8.75;6.80;;;25.20;31.70;;;;;;5047418;28;20056;-63
2023/02/17 11:28:02;;;;;;;10.02;7.68;;;25.20;31.60;;;;;;5028119;28;20045;-62
2023/02/17 11:30:31;;;;;;;12.02;7.80;;;25.30;31.60;;;;;;5047441;28;20057;-63
2023/02/17 11:32:59;;;;;;;9.50;7.27;;;25.30;31.70;;;;;;5042017;28;20496;-63
2023/02/17 11:35:52;;;;;;;13.65;7.53;;;25.20;31.70;;;;;;5039590;28;20051;-61
2023/02/17 11:38:31;;;;;;;8.82;7.10;;;25.20;31.90;;;;;;5049583;28;20045;-59
2023/02/17 11:41:05;;;;;;;8.82;7.18;;;25.20;32.20;;;;;;5049649;28;20045;-63
2023/02/17 11:43:34;;;;;;;12.48;8.40;;;25.20;32.60;;;;;;5049925;28;20373;-61
2023/02/17 11:46:26;;;;;;;8.32;7.13;;;25.20;32.60;;;;;;5051040;28;20125;-63
2023/02/17 11:49:13;;;;;;;10.35;7.65;;;25.20;32.60;;;;;;5048423;28;20506;-62
2023/02/17 11:52:06;;;;;;;9.25;6.90;;;25.20;32.70;;;;;;5058284;28;20555;-62
2023/02/17 11:54:59;;;;;;;9.23;7.63;;;25.20;32.70;;;;;;5051747;28;20048;-61
2023/02/17 11:57:44;;;;;;;11.25;7.20;;;25.30;32.70;;;;;;5047537;28;20053;-62
2023/02/17 12:00:23;;;;;;;10.35;7.68;;;25.30;32.70;;;;;;5052783;28;20049;-63
2023/02/17 12:03:30;;;;;;;8.35;6.78;;;25.30;32.70;;;;;;5051449;28;20052;-63
2023/02/17 12:06:29;;;;;;;10.05;7.40;;;25.30;32.80;;;;;;5044878;28;20058;-64
2023/02/17 12:09:22;;;;;;;9.93;6.78;;;25.30;32.50;;;;;;5047792;28;20140;-65
2023/02/17 12:12:19;;;;;;;10.32;7.63;;;25.40;32.30;;;;;;5048194;28;20079;-66
2023/02/17 12:15:26;;;;;;;13.90;7.15;;;25.40;32.00;;;;;;5039426;28;20080;-66
2023/02/17 12:18:19;;;;;;;12.75;7.82;;;25.40;32.20;;;;;;5048971;28;20086;-64
2023/02/17 12:21:05;;;;;;;8.07;6.72;;;25.40;32.50;;;;;;5049921;28;20049;-64
2023/02/17 12:24:12;;;;;;;11.77;7.80;;;25.40;32.70;;;;;;5043424;28;20041;-65
2023/02/17 12:26:54;;;;;;;10.10;7.07;;;25.40;32.70;;;;;;5048195;28;20128;-62
2023/02/17 12:29:47;;;;;;;8.35;6.47;;;25.40;32.80;;;;;;5047236;28;20461;-63
2023/02/17 12:32:47;;;;;;;9.20;6.47;;;25.40;32.70;;;;;;5047921;28;20049;-63
2023/02/17 12:35:52;;;;;;;12.52;6.95;;;25.40;32.70;;;;;;5044728;28;20048;-62
2023/02/17 12:38:37;;;;;;;7.78;6.75;;;25.50;32.90;;;;;;5043620;28;20045;-63
2023/02/17 12:41:26;;;;;;;8.15;6.35;;;25.50;32.90;;;;;;5043307;28;20586;-62
2023/02/17 12:44:12;;;;;;;9.95;6.07;;;25.50;32.80;;;;;;5044279;28;20043;-63
2023/02/17 12:46:45;;;;;;;13.05;7.93;;;25.50;32.70;;;;;;5047123;28;20118;-62
2023/02/17 12:49:26;;;;;;;10.63;6.43;;;25.50;32.70;;;;;;5042154;28;20053;-63
2023/02/17 12:52:04;;;;;;;7.95;6.63;;;25.50;32.70;;;;;;5033169;28;20095;-64
2023/02/17 12:54:59;;;;;;;11.73;5.72;;;25.50;32.70;;;;;;5049043;28;20045;-62
2023/02/17 12:57:54;;;;;;;9.48;6.28;;;25.60;32.60;;;;;;5046220;28;20456;-66
2023/02/17 13:00:28;;;;;;;8.95;5.95;;;25.60;32.30;;;;;;5044446;28;20040;-65
2023/02/17 13:02:59;;;;;;;9.32;6.13;;;25.60;32.40;;;;;;5036764;28;20053;-63
2023/02/17 13:05:46;;;;;;;8.75;6.05;;;25.60;32.20;;;;;;5053439;28;20045;-61